createdAt,value
2019-01-21T00:01:14.174Z,87.31
2019-01-21T00:04:02.478Z,87.31
2019-01-21T00:06:51.284Z,87.18
2019-01-21T00:09:40.172Z,86.70
2019-01-21T00:12:28.907Z,86.10
2019-01-21T00:15:17.685Z,86.10
2019-01-21T00:18:08.077Z,85.66
2019-01-21T00:20:56.744Z,85.28
2019-01-21T00:23:44.856Z,85.50
2019-01-21T00:26:33.339Z,85.83
2019-01-21T00:29:22.649Z,85.98
2019-01-21T00:32:11.397Z,85.64
2019-01-21T00:35:00.058Z,85.55
2019-01-21T00:37:48.531Z,85.55
2019-01-21T00:40:37.580Z,86.43
2019-01-21T00:43:26.147Z,87.04
2019-01-21T00:46:15.287Z,87.04
2019-01-21T00:49:03.746Z,86.66
2019-01-21T00:51:55.953Z,86.13
2019-01-21T00:54:44.535Z,85.61
2019-01-21T00:57:33.350Z,85.61
2019-01-21T01:00:25.103Z,85.78
2019-01-21T01:03:19.318Z,85.73
2019-01-21T01:06:09.356Z,85.84
2019-01-21T01:08:58.740Z,85.68
2019-01-21T01:11:49.954Z,85.68
2019-01-21T01:14:38.562Z,85.74
2019-01-21T01:17:26.891Z,85.52
2019-01-21T01:20:21.420Z,85.36
2019-01-21T01:23:10.402Z,84.99
2019-01-21T01:25:59.434Z,84.95
2019-01-21T01:28:48.712Z,84.94
2019-01-21T01:31:37.161Z,85.25
2019-01-21T01:34:25.379Z,84.90
2019-01-21T01:37:13.521Z,84.75
2019-01-21T01:40:02.242Z,84.56
2019-01-21T01:42:51.323Z,84.42
2019-01-21T01:45:40.004Z,84.60
2019-01-21T01:48:29.170Z,84.26
2019-01-21T01:51:17.885Z,84.03
2019-01-21T01:54:06.613Z,84.03
2019-01-21T01:56:56.138Z,84.58
2019-01-21T01:59:45.067Z,84.58
2019-01-21T02:02:33.845Z,84.10
2019-01-21T02:05:23.930Z,84.30
2019-01-21T02:08:12.873Z,84.87
2019-01-21T02:11:02.932Z,84.70
2019-01-21T02:13:51.279Z,84.55
2019-01-21T02:16:39.837Z,84.54
2019-01-21T02:19:29.768Z,84.12
2019-01-21T02:22:21.364Z,84.81
2019-01-21T02:25:10.729Z,84.49
2019-01-21T02:28:18.219Z,84.41
2019-01-21T02:31:46.632Z,84.46
2019-01-21T02:35:14.008Z,84.46
2019-01-21T02:38:39.931Z,84.37
2019-01-21T02:41:55.498Z,87.06
2019-01-21T02:45:20.624Z,87.06
2019-01-21T02:48:42.957Z,86.49
2019-01-21T02:52:11.909Z,85.95
2019-01-21T02:55:13.540Z,85.61
2019-01-21T02:58:15.666Z,86.13
2019-01-21T03:01:27.972Z,85.22
2019-01-21T03:04:41.896Z,85.09
2019-01-21T03:07:52.390Z,85.09
2019-01-21T03:10:54.952Z,85.11
2019-01-21T03:13:58.464Z,85.98
2019-01-21T03:17:11.277Z,85.64
2019-01-21T03:20:52.809Z,85.16
2019-01-21T03:24:21.971Z,86.18
2019-01-21T03:27:47.375Z,86.01
2019-01-21T03:30:56.788Z,86.15
2019-01-21T03:34:31.414Z,86.27
2019-01-21T03:37:58.296Z,85.58
2019-01-21T03:41:01.324Z,85.07
2019-01-21T03:44:43.089Z,85.34
2019-01-21T03:47:46.806Z,84.99
2019-01-21T03:51:12.129Z,85.70
2019-01-21T03:54:11.901Z,85.66
2019-01-21T03:57:13.605Z,85.90
2019-01-21T04:00:29.798Z,86.11
2019-01-21T04:03:51.071Z,85.45
2019-01-21T04:07:17.524Z,85.45
2019-01-21T04:10:41.918Z,84.99
2019-01-21T04:14:02.283Z,84.78
2019-01-21T04:17:34.877Z,85.01
2019-01-21T04:21:25.082Z,84.81
2019-01-21T04:24:57.805Z,84.81
2019-01-21T04:28:32.955Z,85.13
2019-01-21T04:31:57.653Z,85.13
2019-01-21T04:35:26.628Z,85.13
2019-01-21T04:38:51.661Z,84.84
2019-01-21T04:42:05.829Z,85.31
2019-01-21T04:45:37.119Z,85.07
2019-01-21T04:48:59.575Z,85.10
2019-01-21T04:52:20.995Z,85.34
2019-01-21T04:55:39.528Z,85.34
2019-01-21T04:58:57.059Z,85.09
2019-01-21T05:02:39.941Z,85.24
2019-01-21T05:05:51.414Z,85.74
2019-01-21T05:09:14.616Z,84.95
2019-01-21T05:12:39.002Z,84.95
2019-01-21T05:15:59.463Z,85.75
2019-01-21T05:19:31.137Z,86.35
2019-01-21T05:22:40.931Z,86.74
2019-01-21T05:25:41.806Z,86.51
2019-01-21T05:29:05.938Z,86.43
2019-01-21T05:32:42.291Z,85.81
2019-01-21T05:36:16.745Z,86.46
2019-01-21T05:39:39.362Z,85.49
2019-01-21T05:43:10.492Z,85.33
2019-01-21T05:46:37.967Z,85.51
2019-01-21T05:50:03.318Z,85.23
2019-01-21T05:53:37.781Z,85.08
2019-01-21T05:57:08.129Z,85.54
2019-01-21T06:00:55.827Z,85.60
2019-01-21T06:04:14.744Z,86.32
2019-01-21T06:07:44.808Z,85.85
2019-01-21T06:10:52.624Z,84.78
2019-01-21T06:13:54.399Z,86.27
2019-01-21T06:17:02.388Z,86.27
2019-01-21T06:20:13.592Z,86.08
2019-01-21T06:23:38.524Z,85.87
2019-01-21T06:27:04.190Z,85.95
2019-01-21T06:30:36.299Z,84.89
2019-01-21T06:34:09.528Z,84.15
2019-01-21T06:37:38.629Z,84.73
2019-01-21T06:41:04.422Z,85.72
2019-01-21T06:44:32.538Z,85.84
2019-01-21T06:47:51.322Z,84.94
2019-01-21T06:51:18.734Z,84.78
2019-01-21T06:54:30.119Z,85.09
2019-01-21T06:57:47.015Z,84.78
2019-01-21T07:01:15.080Z,84.52
2019-01-21T07:04:50.443Z,84.15
2019-01-21T07:08:14.749Z,84.18
2019-01-21T07:11:47.506Z,84.83
2019-01-21T07:15:20.251Z,83.88
2019-01-21T07:18:48.778Z,84.53
2019-01-21T07:22:21.013Z,84.53
2019-01-21T07:26:08.274Z,84.80
2019-01-21T07:29:22.792Z,84.72
2019-01-21T07:33:01.136Z,84.27
2019-01-21T07:36:22.225Z,84.62
2019-01-21T07:39:38.343Z,84.34
2019-01-21T07:42:48.299Z,83.97
2019-01-21T07:45:59.048Z,83.71
2019-01-21T07:49:21.537Z,84.60
2019-01-21T07:53:01.603Z,84.98
2019-01-21T07:56:05.790Z,84.98
2019-01-21T07:59:22.105Z,85.36
2019-01-21T08:02:37.128Z,85.36
2019-01-21T08:05:57.179Z,85.40
2019-01-21T08:09:05.998Z,85.40
2019-01-21T08:12:33.382Z,84.36
2019-01-21T08:16:02.473Z,84.80
2019-01-21T08:19:02.265Z,85.61
2019-01-21T08:22:26.670Z,85.09
2019-01-21T08:25:45.115Z,84.90
2019-01-21T08:29:18.013Z,84.38
2019-01-21T08:32:36.871Z,85.10
2019-01-21T08:35:33.204Z,85.41
2019-01-21T08:39:03.068Z,85.25
2019-01-21T08:42:24.468Z,85.04
2019-01-21T08:45:32.430Z,84.76
2019-01-21T08:49:01.039Z,85.05
2019-01-21T08:52:24.441Z,83.94
2019-01-21T08:55:57.300Z,84.27
2019-01-21T08:59:29.990Z,84.46
2019-01-21T09:02:52.295Z,84.90
2019-01-21T09:06:18.662Z,84.90
2019-01-21T09:09:35.213Z,83.69
2019-01-21T09:12:59.249Z,83.90
2019-01-21T09:16:06.114Z,82.64
2019-01-21T09:19:12.513Z,83.21
2019-01-21T09:22:07.340Z,83.50
2019-01-21T09:25:05.263Z,82.77
2019-01-21T09:28:13.068Z,82.87
2019-01-21T09:31:38.999Z,82.12
2019-01-21T09:34:47.977Z,82.12
2019-01-21T09:38:33.472Z,82.28
2019-01-21T09:41:59.248Z,82.49
2019-01-21T09:45:06.239Z,82.72
2019-01-21T09:47:53.240Z,82.78
2019-01-21T09:50:43.662Z,82.76
2019-01-21T09:53:32.587Z,83.45
2019-01-21T09:56:22.800Z,83.08
2019-01-21T09:59:12.389Z,81.33
2019-01-21T10:02:03.686Z,81.33
2019-01-21T10:05:01.863Z,81.79
2019-01-21T10:08:06.274Z,82.06
2019-01-21T10:11:25.450Z,81.09
2019-01-21T10:14:35.299Z,81.09
2019-01-21T10:17:54.877Z,80.87
2019-01-21T10:21:14.778Z,80.70
2019-01-21T10:24:27.676Z,80.70
2019-01-21T10:27:58.284Z,81.36
2019-01-21T10:31:39.879Z,82.30
2019-01-21T10:35:04.649Z,82.30
2019-01-21T10:38:29.055Z,80.56
2019-01-21T10:41:31.873Z,80.56
2019-01-21T10:44:52.078Z,81.40
2019-01-21T10:48:25.999Z,80.44
2019-01-21T10:51:31.981Z,80.44
2019-01-21T10:54:29.209Z,79.65
2019-01-21T10:57:48.292Z,80.09
2019-01-21T11:01:35.892Z,79.85
2019-01-21T11:04:47.088Z,78.94
2019-01-21T11:07:57.603Z,78.17
2019-01-21T11:11:09.986Z,78.17
2019-01-21T11:14:35.366Z,79.30
2019-01-21T11:17:41.235Z,79.30
2019-01-21T11:21:01.221Z,79.17
2019-01-21T11:24:30.954Z,78.24
2019-01-21T11:28:19.420Z,78.55
2019-01-21T11:31:58.330Z,78.81
2019-01-21T11:35:19.121Z,79.56
2019-01-21T11:38:34.634Z,79.03
2019-01-21T11:41:41.020Z,78.85
2019-01-21T11:44:56.097Z,78.85
2019-01-21T11:48:17.982Z,77.92
2019-01-21T11:52:18.239Z,77.90
2019-01-21T11:55:48.218Z,77.32
2019-01-21T11:59:02.312Z,78.10
2019-01-21T12:02:35.002Z,77.45
2019-01-21T12:05:37.158Z,77.73
2019-01-21T12:09:31.077Z,77.35
2019-01-21T12:12:39.836Z,78.02
2019-01-21T12:15:47.298Z,78.08
2019-01-21T12:19:00.155Z,78.08
2019-01-21T12:22:19.061Z,77.27
2019-01-21T12:25:20.314Z,77.08
2019-01-21T12:28:41.247Z,77.08
2019-01-21T12:31:42.953Z,77.41
2019-01-21T12:35:14.615Z,77.12
2019-01-21T12:38:23.975Z,78.07
2019-01-21T12:41:29.275Z,77.88
2019-01-21T12:44:53.401Z,78.11
2019-01-21T12:47:56.808Z,78.11
2019-01-21T12:51:08.500Z,78.67
2019-01-21T12:54:31.258Z,78.67
2019-01-21T12:57:45.874Z,78.28
2019-01-21T13:01:11.724Z,78.48
2019-01-21T13:04:12.150Z,78.43
2019-01-21T13:07:37.636Z,78.57
2019-01-21T13:10:54.493Z,78.48
2019-01-21T13:14:19.126Z,78.10
2019-01-21T13:17:54.716Z,77.85
2019-01-21T13:21:34.844Z,77.82
2019-01-21T13:25:13.474Z,78.20
2019-01-21T13:28:39.580Z,78.20
2019-01-21T13:32:22.242Z,78.31
2019-01-21T13:35:39.417Z,78.15
2019-01-21T13:39:28.474Z,78.15
2019-01-21T13:42:39.877Z,78.60
2019-01-21T13:46:09.446Z,78.38
2019-01-21T13:49:15.444Z,78.22
2019-01-21T13:53:09.753Z,78.18
2019-01-21T13:56:23.976Z,78.26
2019-01-21T13:59:48.361Z,77.88
2019-01-21T14:03:09.498Z,77.88
2019-01-21T14:06:54.308Z,77.77
2019-01-21T14:10:34.321Z,78.07
2019-01-21T14:14:13.058Z,78.25
2019-01-21T14:17:31.883Z,78.54
2019-01-21T14:20:43.736Z,78.54
2019-01-21T14:23:59.839Z,77.92
2019-01-21T14:27:04.574Z,78.35
2019-01-21T14:30:25.773Z,78.52
2019-01-21T14:33:34.512Z,78.52
2019-01-21T14:37:06.029Z,78.52
2019-01-21T14:40:09.465Z,78.16
2019-01-21T14:43:54.822Z,78.00
2019-01-21T14:47:19.619Z,78.37
2019-01-21T14:50:50.486Z,78.55
2019-01-21T14:54:21.659Z,78.40
2019-01-21T14:57:50.534Z,78.81
2019-01-21T15:01:19.240Z,78.81
2019-01-21T15:04:50.581Z,78.69
2019-01-21T15:08:08.382Z,78.69
2019-01-21T15:11:14.480Z,78.57
2019-01-21T15:14:30.188Z,79.56
2019-01-21T15:18:19.197Z,79.56
2019-01-21T15:21:36.299Z,79.75
2019-01-21T15:25:08.986Z,79.89
2019-01-21T15:28:42.368Z,79.75
2019-01-21T15:32:21.561Z,79.66
2019-01-21T15:35:53.389Z,79.67
2019-01-21T15:39:22.354Z,79.87
2019-01-21T15:42:37.821Z,79.87
2019-01-21T15:45:59.627Z,80.08
2019-01-21T15:49:13.047Z,80.11
2019-01-21T15:52:27.227Z,80.00
2019-01-21T15:55:44.253Z,79.94
2019-01-21T15:58:51.351Z,80.34
2019-01-21T16:02:19.600Z,80.34
2019-01-21T16:05:42.800Z,80.38
2019-01-21T16:09:10.968Z,80.72
2019-01-21T16:12:20.419Z,80.37
2019-01-21T16:15:24.921Z,80.03
2019-01-21T16:18:34.732Z,79.81
2019-01-21T16:21:39.263Z,79.87
2019-01-21T16:25:07.581Z,79.43
2019-01-21T16:28:40.864Z,79.68
2019-01-21T16:31:57.307Z,79.39
2019-01-21T16:35:19.330Z,79.39
2019-01-21T16:38:22.199Z,79.28
2019-01-21T16:41:51.259Z,79.39
2019-01-21T16:44:39.712Z,79.67
2019-01-21T16:47:28.922Z,79.67
2019-01-21T16:50:17.369Z,79.21
2019-01-21T16:53:06.624Z,79.21
2019-01-21T16:55:55.812Z,78.85
2019-01-21T16:58:44.866Z,78.85
2019-01-21T17:01:34.863Z,79.77
2019-01-21T17:04:24.388Z,79.77
2019-01-21T17:07:13.505Z,79.27
2019-01-21T17:10:01.931Z,79.24
2019-01-21T17:12:50.671Z,78.94
2019-01-21T17:15:39.914Z,79.39
2019-01-21T17:18:28.920Z,79.21
2019-01-21T17:21:18.040Z,79.21
2019-01-21T17:24:06.239Z,79.38
2019-01-21T17:26:54.916Z,79.30
2019-01-21T17:29:43.578Z,79.30
2019-01-21T17:32:32.705Z,79.49
2019-01-21T17:35:21.990Z,79.49
2019-01-21T17:38:10.488Z,79.25
2019-01-21T17:40:59.218Z,79.21
2019-01-21T17:43:48.089Z,79.11
2019-01-21T17:46:36.952Z,79.13
2019-01-21T17:49:25.664Z,78.96
2019-01-21T17:52:16.529Z,78.96
2019-01-21T17:55:05.196Z,79.60
2019-01-21T17:57:55.309Z,79.60
2019-01-21T18:00:44.816Z,79.42
2019-01-21T18:03:33.678Z,79.34
2019-01-21T18:06:22.602Z,79.40
2019-01-21T18:09:13.934Z,80.33
2019-01-21T18:12:04.465Z,80.33
2019-01-21T18:14:57.123Z,81.29
2019-01-21T18:17:46.323Z,81.29
2019-01-21T18:20:58.678Z,80.93
2019-01-21T18:23:55.889Z,80.93
2019-01-21T18:26:44.392Z,80.72
2019-01-21T18:29:33.287Z,80.37
2019-01-21T18:32:21.913Z,80.42
2019-01-21T18:35:12.106Z,80.92
2019-01-21T18:38:00.886Z,80.92
2019-01-21T18:40:54.997Z,80.46
2019-01-21T18:43:44.097Z,80.46
2019-01-21T18:46:35.264Z,80.68
2019-01-21T18:49:24.698Z,80.55
2019-01-21T18:52:14.633Z,80.55
2019-01-21T18:55:04.098Z,80.76
2019-01-21T18:57:56.025Z,80.76
2019-01-21T19:00:44.570Z,81.09
2019-01-21T19:03:34.878Z,80.62
2019-01-21T19:06:24.447Z,80.62
2019-01-21T19:09:14.248Z,80.91
2019-01-21T19:12:03.716Z,80.87
2019-01-21T19:14:52.617Z,80.87
2019-01-21T19:17:41.092Z,80.86
2019-01-21T19:20:31.252Z,80.86
2019-01-21T19:23:21.082Z,81.26
2019-01-21T19:26:09.529Z,81.49
2019-01-21T19:29:02.193Z,81.49
2019-01-21T19:31:52.860Z,81.45
2019-01-21T19:34:53.339Z,81.20
2019-01-21T19:37:42.631Z,81.20
2019-01-21T19:40:32.171Z,81.32
2019-01-21T19:43:21.479Z,81.77
2019-01-21T19:46:10.551Z,81.77
2019-01-21T19:48:58.883Z,81.77
2019-01-21T19:51:47.861Z,81.57
2019-01-21T19:54:35.857Z,81.57
2019-01-21T19:57:24.376Z,81.61
2019-01-21T20:00:16.913Z,81.25
2019-01-21T20:03:06.461Z,81.25
2019-01-21T20:05:55.147Z,81.51
2019-01-21T20:08:44.985Z,81.51
2019-01-21T20:11:35.452Z,81.61
2019-01-21T20:14:31.369Z,81.61
2019-01-21T20:17:20.620Z,81.33
2019-01-21T20:20:15.830Z,82.00
2019-01-21T20:23:05.076Z,81.76
2019-01-21T20:25:54.252Z,81.64
2019-01-21T20:28:43.470Z,81.64
2019-01-21T20:31:32.209Z,82.04
2019-01-21T20:34:21.256Z,82.01
2019-01-21T20:37:11.269Z,82.01
2019-01-21T20:40:00.886Z,82.03
2019-01-21T20:42:49.742Z,82.22
2019-01-21T20:45:38.416Z,82.26
2019-01-21T20:48:26.711Z,82.24
2019-01-21T20:51:15.671Z,82.25
2019-01-21T20:54:03.618Z,82.25
2019-01-21T20:56:52.145Z,82.54
2019-01-21T20:59:41.428Z,82.35
2019-01-21T21:02:30.689Z,82.49
2019-01-21T21:05:19.947Z,82.38
2019-01-21T21:08:14.896Z,82.38
2019-01-21T21:11:05.260Z,82.51
2019-01-21T21:13:55.939Z,82.08
2019-01-21T21:17:05.265Z,82.24
2019-01-21T21:19:55.037Z,82.24
2019-01-21T21:22:49.939Z,82.20
2019-01-21T21:29:06.980Z,82.35
2019-01-21T21:31:56.614Z,82.25
2019-01-21T21:34:45.354Z,81.92
2019-01-21T21:37:40.451Z,81.92
2019-01-21T21:40:30.293Z,81.91
2019-01-21T21:43:19.417Z,81.94
2019-01-21T21:46:19.816Z,81.94
2019-01-21T21:49:08.323Z,81.66
2019-01-21T21:51:57.466Z,81.50
2019-01-21T21:54:46.657Z,81.39
2019-01-21T21:57:35.498Z,81.63
2019-01-21T22:00:25.185Z,81.60
2019-01-21T22:03:14.515Z,81.60
2019-01-21T22:06:04.430Z,81.32
2019-01-21T22:08:53.598Z,81.32
2019-01-21T22:11:43.814Z,81.59
2019-01-21T22:14:33.046Z,81.59
2019-01-21T22:17:22.136Z,81.74
2019-01-21T22:20:16.099Z,81.65
2019-01-21T22:23:04.533Z,81.54
2019-01-21T22:25:53.137Z,81.75
2019-01-21T22:28:42.235Z,81.94
2019-01-21T22:31:31.446Z,82.01
2019-01-21T22:34:20.953Z,82.11
2019-01-21T22:37:09.674Z,81.75
2019-01-21T22:40:00.386Z,81.65
2019-01-21T22:42:48.603Z,81.65
2019-01-21T22:45:36.967Z,82.11
2019-01-21T22:48:26.574Z,81.83
2019-01-21T22:51:16.272Z,81.83
2019-01-21T22:54:04.838Z,81.71
2019-01-21T22:56:53.563Z,81.74
2019-01-21T22:59:42.287Z,81.79
2019-01-21T23:02:31.182Z,81.73
2019-01-21T23:05:20.012Z,81.99
2019-01-21T23:08:08.366Z,82.04
2019-01-21T23:10:57.664Z,81.96
2019-01-21T23:13:46.661Z,82.92
2019-01-21T23:16:36.595Z,83.15
2019-01-21T23:19:26.235Z,82.98
2019-01-21T23:22:14.634Z,82.98
2019-01-21T23:25:04.517Z,82.60
2019-01-21T23:27:53.588Z,82.60
2019-01-21T23:30:42.522Z,82.75
2019-01-21T23:33:31.894Z,82.93
2019-01-21T23:36:21.146Z,82.18
2019-01-21T23:39:10.677Z,82.53
2019-01-21T23:41:59.785Z,82.59
2019-01-21T23:44:48.351Z,82.59
2019-01-21T23:47:36.979Z,82.45
2019-01-21T23:50:26.465Z,82.45
2019-01-21T23:53:16.207Z,82.81
2019-01-21T23:56:04.602Z,82.83
2019-01-21T23:58:53.636Z,83.00
